createdAt,value
2023-02-02T01:10:54.207Z,1.50
2023-02-02T01:37:37.135Z,1.35
2023-02-02T01:41:39.628Z,1.40
2023-02-02T02:06:21.235Z,0.93
2023-02-02T02:14:31.713Z,0.85
2023-02-02T02:18:52.073Z,0.60
2023-02-02T02:40:49.198Z,1.20
2023-02-02T02:44:20.203Z,1.27
2023-02-02T02:55:42.177Z,1.85
2023-02-02T03:00:16.653Z,2.08
2023-02-02T03:22:46.573Z,1.80
2023-02-02T03:29:30.649Z,1.50
2023-02-02T03:36:19.689Z,1.50
2023-02-02T03:39:48.175Z,1.62
2023-02-02T03:43:08.833Z,1.77
2023-02-02T03:46:41.008Z,1.62
2023-02-02T04:07:38.259Z,1.70
2023-02-02T04:18:40.148Z,1.50
2023-02-02T04:22:13.153Z,0.93
2023-02-02T04:25:33.885Z,1.33
2023-02-02T04:29:35.717Z,1.30
2023-02-02T04:32:41.903Z,1.60
2023-02-02T04:36:00.988Z,1.87
2023-02-02T05:00:59.763Z,1.25
2023-02-02T05:12:13.467Z,1.35
2023-02-02T05:15:24.198Z,1.27
2023-02-02T05:18:41.166Z,1.40
2023-02-02T05:21:45.641Z,1.80
2023-02-02T05:24:47.972Z,1.87
2023-02-02T05:27:50.771Z,1.42
2023-02-02T05:30:53.204Z,1.27
2023-02-02T05:33:55.896Z,1.60
2023-02-02T05:36:58.226Z,1.77
2023-02-02T05:40:00.997Z,1.90
2023-02-02T05:43:04.388Z,1.80
2023-02-02T05:46:07.304Z,1.60
2023-02-02T05:49:13.698Z,1.52
2023-02-02T05:52:19.162Z,1.45
2023-02-02T05:55:21.589Z,1.55
2023-02-02T05:58:24.572Z,1.92
2023-02-02T06:01:27.096Z,1.90
2023-02-02T06:04:30.001Z,1.70
2023-02-02T06:07:32.269Z,1.90
2023-02-02T06:10:34.814Z,1.87
2023-02-02T06:13:37.315Z,1.80
2023-02-02T06:16:39.906Z,1.70
2023-02-02T06:19:42.193Z,1.67
2023-02-02T06:22:45.225Z,1.75
2023-02-02T06:25:47.748Z,1.90
2023-02-02T06:28:52.813Z,1.90
2023-02-02T06:31:55.930Z,1.90
2023-02-02T06:34:59.937Z,1.58
2023-02-02T06:38:02.172Z,1.40
2023-02-02T06:41:05.550Z,1.58
2023-02-02T06:44:07.943Z,1.50
2023-02-02T06:47:10.388Z,1.67
2023-02-02T06:50:12.695Z,1.45
2023-02-02T06:53:15.939Z,1.30
2023-02-02T06:56:19.560Z,1.45
2023-02-02T06:59:22.866Z,1.48
2023-02-02T07:02:25.363Z,1.48
2023-02-02T07:09:02.215Z,1.90
2023-02-02T07:12:09.917Z,1.70
2023-02-02T07:15:15.421Z,1.55
2023-02-02T07:18:18.481Z,1.50
2023-02-02T07:21:23.139Z,1.58
2023-02-02T07:24:27.520Z,1.80
2023-02-02T07:27:32.752Z,1.90
2023-02-02T07:30:35.405Z,1.25
2023-02-02T07:33:40.117Z,1.15
2023-02-02T07:36:42.715Z,1.45
2023-02-02T07:39:45.013Z,1.30
2023-02-02T07:42:48.840Z,1.30
2023-02-02T07:45:51.057Z,1.77
2023-02-02T07:48:57.794Z,1.20
2023-02-02T07:52:00.118Z,1.33
2023-02-02T07:55:14.480Z,1.75
2023-02-02T07:58:25.635Z,1.30
2023-02-02T08:01:28.884Z,1.42
2023-02-02T08:04:33.512Z,1.48
2023-02-02T08:07:37.530Z,1.33
2023-02-02T08:10:40.139Z,1.67
2023-02-02T08:13:43.791Z,1.25
2023-02-02T08:16:46.187Z,1.75
2023-02-02T08:19:48.544Z,1.70
2023-02-02T08:22:51.284Z,1.37
2023-02-02T08:26:06.505Z,1.40
2023-02-02T08:29:17.162Z,1.25
2023-02-02T08:32:19.511Z,1.45
2023-02-02T08:35:25.599Z,1.35
2023-02-02T08:42:25.408Z,1.05
2023-02-02T08:46:02.282Z,1.37
2023-02-02T08:52:35.069Z,1.50
2023-02-02T08:55:41.531Z,1.55
2023-02-02T08:58:50.581Z,1.23
2023-02-02T09:01:53.092Z,1.27
2023-02-02T09:04:56.253Z,1.20
2023-02-02T09:08:12.906Z,1.30
2023-02-02T09:11:19.593Z,1.87
2023-02-02T09:14:21.830Z,1.35
2023-02-02T09:17:24.451Z,1.17
2023-02-02T09:20:27.940Z,1.50
2023-02-02T09:23:32.366Z,1.40
2023-02-02T09:26:37.849Z,1.30
2023-02-02T09:29:44.330Z,1.30
2023-02-02T09:32:50.039Z,1.23
2023-02-02T09:35:53.939Z,1.55
2023-02-02T09:39:02.476Z,1.02
2023-02-02T09:42:35.855Z,1.12
2023-02-02T09:46:07.032Z,1.77
2023-02-02T09:49:13.572Z,1.08
2023-02-02T09:52:24.522Z,1.20
2023-02-02T09:56:05.495Z,1.20
2023-02-02T09:59:22.331Z,1.42
2023-02-02T10:02:42.931Z,1.33
2023-02-02T10:05:55.712Z,1.08
2023-02-02T10:09:09.838Z,1.35
2023-02-02T10:12:12.400Z,1.27
2023-02-02T10:15:33.702Z,1.70
2023-02-02T10:23:12.547Z,1.40
2023-02-02T10:26:19.139Z,1.10
2023-02-02T10:29:24.543Z,1.33
2023-02-02T10:33:01.552Z,1.15
2023-02-02T10:40:43.695Z,1.10
2023-02-02T10:43:59.799Z,2.00
2023-02-02T10:47:08.827Z,1.52
2023-02-02T10:50:14.686Z,1.37
2023-02-02T10:53:21.396Z,1.40
2023-02-02T10:56:37.291Z,1.60
2023-02-02T11:00:05.999Z,1.55
2023-02-02T11:03:12.428Z,1.15
2023-02-02T11:06:35.371Z,1.48
2023-02-02T11:09:40.996Z,1.12
2023-02-02T11:12:50.766Z,1.40
2023-02-02T11:16:15.653Z,1.62
2023-02-02T11:19:18.972Z,1.67
2023-02-02T11:22:25.640Z,1.15
2023-02-02T11:25:37.181Z,1.08
2023-02-02T11:28:40.179Z,1.45
2023-02-02T11:31:43.376Z,1.73
2023-02-02T11:34:45.941Z,1.23
2023-02-02T11:38:01.033Z,1.50
2023-02-02T11:41:11.120Z,1.27
2023-02-02T11:44:26.434Z,1.37
2023-02-02T11:47:33.851Z,1.45
2023-02-02T11:50:36.862Z,1.42
2023-02-02T11:53:47.704Z,1.10
2023-02-02T12:00:06.219Z,1.27
2023-02-02T12:03:23.817Z,1.40
2023-02-02T12:06:34.025Z,1.30
2023-02-02T12:09:36.224Z,1.60
2023-02-02T12:12:53.014Z,1.25
2023-02-02T12:15:58.503Z,1.65
2023-02-02T12:19:19.342Z,1.20
2023-02-02T12:22:46.673Z,1.60
2023-02-02T12:26:11.400Z,1.20
2023-02-02T12:29:19.627Z,1.35
2023-02-02T12:32:45.783Z,1.27
2023-02-02T12:36:00.154Z,1.30
2023-02-02T12:39:34.481Z,1.67
2023-02-02T12:43:01.332Z,1.62
2023-02-02T12:46:54.496Z,1.50
2023-02-02T12:50:18.585Z,1.40
2023-02-02T12:54:32.772Z,1.62
2023-02-02T12:57:43.928Z,1.55
2023-02-02T13:04:07.557Z,1.42
2023-02-02T13:07:26.406Z,1.30
2023-02-02T13:10:35.279Z,1.75
2023-02-02T13:13:39.622Z,1.52
2023-02-02T13:16:48.564Z,1.83
2023-02-02T13:19:56.107Z,1.85
2023-02-02T13:23:02.641Z,1.42
2023-02-02T13:26:12.904Z,1.60
2023-02-02T13:29:35.220Z,1.60
2023-02-02T13:32:53.722Z,1.50
2023-02-02T13:36:00.460Z,1.80
2023-02-02T13:39:16.946Z,1.50
2023-02-02T13:42:32.345Z,1.80
2023-02-02T13:45:53.269Z,1.80
2023-02-02T13:49:07.321Z,1.70
2023-02-02T13:52:32.691Z,1.48
2023-02-02T13:56:09.443Z,1.62
2023-02-02T13:59:30.846Z,1.50
2023-02-02T14:05:38.795Z,1.80
2023-02-02T14:08:48.025Z,1.98
2023-02-02T14:11:57.525Z,1.50
2023-02-02T14:15:00.455Z,1.90
2023-02-02T14:18:03.073Z,1.70
2023-02-02T14:21:05.498Z,1.40
2023-02-02T14:24:26.416Z,2.00
2023-02-02T14:27:28.578Z,1.60
2023-02-02T14:30:34.930Z,1.50
2023-02-02T14:33:47.245Z,1.70
2023-02-02T14:37:23.546Z,1.62
2023-02-02T14:40:58.024Z,1.73
2023-02-02T14:44:04.663Z,2.17
2023-02-02T14:47:44.845Z,1.70
2023-02-02T14:50:52.744Z,1.70
2023-02-02T14:54:01.462Z,1.65
2023-02-02T14:57:25.269Z,1.35
2023-02-02T15:00:35.379Z,1.90
2023-02-02T15:03:45.828Z,1.50
2023-02-02T15:06:50.984Z,2.00
2023-02-02T15:09:58.147Z,1.90
2023-02-02T15:13:07.510Z,1.75
2023-02-02T15:16:20.657Z,1.80
2023-02-02T15:19:32.352Z,1.77
2023-02-02T15:22:37.776Z,2.47
2023-02-02T15:25:51.663Z,1.98
2023-02-02T15:29:05.691Z,1.80
2023-02-02T15:32:17.072Z,1.70
2023-02-02T15:35:23.802Z,1.90
2023-02-02T15:38:34.737Z,2.10
2023-02-02T15:44:43.479Z,1.83
2023-02-02T15:47:46.046Z,1.95
2023-02-02T15:50:51.220Z,1.98
2023-02-02T15:53:54.789Z,2.10
2023-02-02T15:57:00.315Z,1.95
2023-02-02T16:00:30.795Z,2.10
2023-02-02T16:03:55.365Z,2.15
2023-02-02T16:06:57.969Z,2.25
2023-02-02T16:10:06.653Z,2.20
2023-02-02T16:13:21.317Z,2.05
2023-02-02T16:16:29.874Z,1.95
2023-02-02T16:19:32.271Z,2.10
2023-02-02T16:22:37.205Z,2.05
2023-02-02T16:25:49.615Z,2.40
2023-02-02T16:28:52.226Z,2.95
2023-02-02T16:31:55.931Z,2.03
2023-02-02T16:34:59.023Z,2.92
2023-02-02T16:38:20.019Z,2.03
2023-02-02T16:44:43.829Z,2.03
2023-02-02T16:47:46.371Z,2.50
2023-02-02T16:51:06.280Z,2.20
2023-02-02T16:54:08.640Z,2.50
2023-02-02T16:57:18.707Z,2.05
2023-02-02T17:00:25.178Z,2.33
2023-02-02T17:03:33.454Z,2.28
2023-02-02T17:06:51.306Z,1.80
2023-02-02T17:10:20.285Z,2.90
2023-02-02T17:13:32.406Z,2.40
2023-02-02T17:16:34.606Z,3.92
2023-02-02T17:19:37.055Z,2.10
2023-02-02T17:22:45.653Z,2.15
2023-02-02T17:25:48.344Z,2.05
2023-02-02T17:28:54.999Z,2.30
2023-02-02T17:31:57.529Z,2.20
2023-02-02T17:34:59.643Z,2.50
2023-02-02T17:38:02.087Z,2.28
2023-02-02T17:41:04.665Z,2.33
2023-02-02T17:44:09.199Z,2.45
2023-02-02T17:47:13.233Z,2.60
2023-02-02T17:50:16.110Z,2.10
2023-02-02T17:53:21.675Z,2.47
2023-02-02T17:56:24.208Z,2.40
2023-02-02T17:59:26.505Z,2.60
2023-02-02T18:02:29.017Z,3.22
2023-02-02T18:05:31.538Z,2.58
2023-02-02T18:08:33.960Z,2.35
2023-02-02T18:11:36.744Z,2.47
2023-02-02T18:14:39.271Z,2.28
2023-02-02T18:17:42.368Z,2.80
2023-02-02T18:20:49.549Z,2.90
2023-02-02T18:23:52.156Z,2.62
2023-02-02T18:26:54.325Z,3.00
2023-02-02T18:29:57.009Z,3.05
2023-02-02T18:32:59.827Z,3.60
2023-02-02T18:36:06.844Z,2.65
2023-02-02T18:39:09.909Z,2.62
2023-02-02T18:42:12.678Z,2.67
2023-02-02T18:45:14.887Z,2.72
2023-02-02T18:48:19.512Z,2.80
2023-02-02T18:51:21.979Z,2.72
2023-02-02T18:54:24.636Z,2.50
2023-02-02T18:57:30.293Z,2.97
2023-02-02T19:00:32.785Z,2.70
2023-02-02T19:03:36.605Z,2.60
2023-02-02T19:06:57.884Z,2.72
2023-02-02T19:10:00.037Z,2.90
2023-02-02T19:13:05.238Z,2.75
2023-02-02T19:16:14.581Z,2.60
2023-02-02T19:19:29.125Z,2.85
2023-02-02T19:22:32.490Z,2.50
2023-02-02T19:25:36.418Z,3.25
2023-02-02T19:28:39.289Z,2.80
2023-02-02T19:31:43.389Z,3.03
2023-02-02T19:34:46.681Z,3.00
2023-02-02T19:37:52.835Z,2.50
2023-02-02T19:40:55.558Z,3.85
2023-02-02T19:44:16.768Z,2.97
2023-02-02T19:47:30.345Z,3.50
2023-02-02T19:50:38.719Z,3.45
2023-02-02T19:53:40.893Z,3.20
2023-02-02T19:56:43.312Z,3.10
2023-02-02T19:59:47.957Z,3.22
2023-02-02T20:03:04.957Z,3.00
2023-02-02T20:06:16.833Z,3.25
2023-02-02T20:09:20.354Z,3.20
2023-02-02T20:12:31.565Z,3.53
2023-02-02T20:15:35.892Z,2.85
2023-02-02T20:18:44.239Z,2.50
2023-02-02T20:21:50.046Z,2.65
2023-02-02T20:24:52.906Z,1.85
2023-02-02T20:27:58.821Z,2.17
2023-02-02T20:31:03.800Z,2.60
2023-02-02T20:34:20.861Z,2.75
2023-02-02T20:37:27.048Z,2.60
2023-02-02T20:40:30.351Z,2.70
2023-02-02T20:43:32.867Z,2.65
2023-02-02T20:46:35.243Z,2.78
2023-02-02T20:49:38.595Z,3.30
2023-02-02T20:52:41.261Z,2.70
2023-02-02T20:55:44.694Z,3.10
2023-02-02T20:58:46.827Z,2.60
2023-02-02T21:01:52.951Z,2.80
2023-02-02T21:04:55.360Z,3.05
2023-02-02T21:07:57.859Z,3.03
2023-02-02T21:11:00.234Z,3.35
2023-02-02T21:14:02.823Z,3.45
2023-02-02T21:17:14.823Z,3.25
2023-02-02T21:20:17.804Z,2.78
2023-02-02T21:23:21.597Z,3.28
2023-02-02T21:26:30.632Z,3.37
2023-02-02T21:29:33.604Z,3.90
2023-02-02T21:32:35.780Z,3.00
2023-02-02T21:35:38.264Z,2.95
2023-02-02T21:38:40.431Z,3.08
2023-02-02T21:41:43.339Z,2.95
2023-02-02T21:44:53.493Z,3.50
2023-02-02T21:47:59.521Z,3.53
2023-02-02T21:51:22.893Z,3.60
2023-02-02T21:54:27.229Z,3.08
2023-02-02T21:57:37.042Z,2.72
2023-02-02T22:00:39.508Z,3.00
2023-02-02T22:03:46.459Z,2.92
2023-02-02T22:07:15.585Z,2.70
2023-02-02T22:10:20.730Z,2.80
2023-02-02T22:13:24.933Z,2.70
2023-02-02T22:16:27.519Z,2.80
2023-02-02T22:19:34.175Z,2.67
2023-02-02T22:22:40.316Z,2.90
2023-02-02T22:25:44.019Z,2.80
2023-02-02T22:28:46.459Z,3.35
2023-02-02T22:31:48.754Z,3.20
2023-02-02T22:34:51.841Z,3.22
2023-02-02T22:37:54.056Z,2.78
2023-02-02T22:40:57.058Z,3.20
2023-02-02T22:43:59.243Z,2.95
2023-02-02T22:47:02.383Z,3.08
2023-02-02T22:50:07.219Z,2.90
2023-02-02T22:53:15.390Z,2.83
2023-02-02T22:56:17.563Z,3.00
2023-02-02T22:59:20.081Z,3.10
2023-02-02T23:02:22.264Z,2.80
2023-02-02T23:05:26.059Z,2.42
2023-02-02T23:08:28.223Z,2.70
2023-02-02T23:11:30.717Z,2.60
2023-02-02T23:14:33.290Z,2.83
2023-02-02T23:17:35.768Z,2.62
2023-02-02T23:20:38.049Z,2.60
2023-02-02T23:23:40.621Z,2.60
2023-02-02T23:26:42.938Z,2.28
2023-02-02T23:29:45.425Z,2.25
2023-02-02T23:32:48.027Z,2.70
2023-02-02T23:35:50.468Z,2.90
2023-02-02T23:38:52.718Z,2.40
2023-02-02T23:41:55.148Z,2.78
2023-02-02T23:44:57.380Z,3.17
2023-02-02T23:47:59.943Z,2.90
2023-02-02T23:51:02.187Z,2.80
2023-02-02T23:54:05.249Z,2.60
2023-02-02T23:57:07.413Z,2.40
